createdAt,value
2017-11-01T00:01:54.485Z,29.87
2017-11-01T00:04:20.666Z,30.43
2017-11-01T00:06:46.873Z,29.93
2017-11-01T00:09:13.055Z,29.40
2017-11-01T00:11:39.203Z,30.83
2017-11-01T00:14:06.152Z,30.20
2017-11-01T00:16:33.093Z,30.03
2017-11-01T00:19:00.014Z,29.77
2017-11-01T00:21:26.176Z,30.03
2017-11-01T00:23:53.096Z,30.13
2017-11-01T00:26:19.281Z,29.70
2017-11-01T00:28:45.507Z,30.00
2017-11-01T00:31:12.416Z,32.70
2017-11-01T00:33:38.629Z,30.10
2017-11-01T00:36:04.841Z,32.67
2017-11-01T00:38:31.029Z,31.50
2017-11-01T00:40:57.204Z,31.17
2017-11-01T00:43:23.368Z,33.23
2017-11-01T00:45:49.575Z,31.83
2017-11-01T00:48:15.787Z,32.43
2017-11-01T00:50:42.706Z,32.83
2017-11-01T00:53:09.928Z,34.53
2017-11-01T00:55:36.108Z,34.10
2017-11-01T00:58:02.320Z,31.73
2017-11-01T01:00:28.484Z,33.47
2017-11-01T01:02:55.380Z,32.10
2017-11-01T01:05:21.555Z,32.33
2017-11-01T01:07:47.765Z,31.00
2017-11-01T01:10:14.006Z,32.53
2017-11-01T01:12:40.201Z,31.00
2017-11-01T01:15:06.372Z,32.57
2017-11-01T01:17:32.564Z,32.80
2017-11-01T01:19:58.743Z,30.97
2017-11-01T01:22:24.947Z,31.33
2017-11-01T01:24:51.150Z,31.10
2017-11-01T01:27:18.045Z,29.83
2017-11-01T01:29:44.212Z,31.20
2017-11-01T01:32:10.384Z,32.23
2017-11-01T01:34:37.297Z,30.13
2017-11-01T01:37:03.519Z,30.03
2017-11-01T01:39:29.684Z,29.37
2017-11-01T01:41:56.585Z,29.93
2017-11-01T01:44:22.784Z,29.00
2017-11-01T01:46:49.677Z,29.37
2017-11-01T01:49:15.839Z,30.20
2017-11-01T01:51:42.817Z,28.50
2017-11-01T01:54:09.045Z,29.00
2017-11-01T01:56:35.953Z,30.60
2017-11-01T01:59:02.145Z,28.50
2017-11-01T02:01:28.309Z,30.43
2017-11-01T02:03:54.462Z,27.70
2017-11-01T02:06:21.389Z,28.23
2017-11-01T02:08:47.543Z,27.63
2017-11-01T02:11:13.701Z,28.10
2017-11-01T02:13:41.521Z,26.70
2017-11-01T02:16:07.686Z,26.93
2017-11-01T02:18:34.591Z,26.33
2017-11-01T02:21:01.656Z,29.80
2017-11-01T02:23:27.814Z,29.70
2017-11-01T02:25:53.989Z,28.30
2017-11-01T02:28:20.168Z,27.97
2017-11-01T02:30:46.342Z,29.63
2017-11-01T02:33:13.258Z,27.80
2017-11-01T02:35:39.411Z,26.20
2017-11-01T02:38:05.605Z,28.50
2017-11-01T02:40:31.772Z,27.17
2017-11-01T02:42:57.937Z,28.53
2017-11-01T02:45:24.121Z,29.27
2017-11-01T02:47:50.274Z,27.57
2017-11-01T02:50:16.432Z,28.40
2017-11-01T02:52:43.325Z,29.00
2017-11-01T02:55:09.825Z,26.93
2017-11-01T02:57:36.728Z,27.07
2017-11-01T03:00:02.927Z,26.10
2017-11-01T03:02:29.142Z,28.20
2017-11-01T03:04:55.349Z,25.50
2017-11-01T03:07:22.261Z,30.00
2017-11-01T03:09:48.438Z,26.83
2017-11-01T03:12:15.368Z,27.63
2017-11-01T03:14:41.562Z,28.33
2017-11-01T03:17:07.788Z,27.37
2017-11-01T03:19:33.977Z,29.60
2017-11-01T03:22:00.910Z,29.57
2017-11-01T03:24:27.089Z,30.00
2017-11-01T03:26:54.001Z,30.93
2017-11-01T03:29:20.149Z,30.57
2017-11-01T03:31:47.086Z,31.40
2017-11-01T03:34:13.261Z,31.27
2017-11-01T03:36:39.443Z,31.53
2017-11-01T03:39:08.142Z,32.53
2017-11-01T03:41:34.337Z,32.63
2017-11-01T03:44:00.514Z,37.20
2017-11-01T03:46:27.413Z,36.50
2017-11-01T03:48:53.633Z,39.03
2017-11-01T03:51:19.811Z,36.67
2017-11-01T03:53:46.007Z,38.10
2017-11-01T03:56:14.021Z,36.70
2017-11-01T03:58:40.212Z,39.00
2017-11-01T04:01:07.139Z,39.40
2017-11-01T04:03:34.049Z,34.40
2017-11-01T04:06:00.229Z,36.67
2017-11-01T04:08:27.138Z,36.37
2017-11-01T04:10:53.335Z,38.60
2017-11-01T04:13:19.524Z,35.50
2017-11-01T04:15:47.197Z,36.73
2017-11-01T04:18:20.169Z,36.57
2017-11-01T04:20:48.289Z,39.53
2017-11-01T04:23:15.197Z,39.13
2017-11-01T04:25:41.461Z,39.30
2017-11-01T04:28:08.361Z,37.07
2017-11-01T04:30:34.521Z,37.70
2017-11-01T04:33:00.709Z,36.67
2017-11-01T04:35:26.881Z,37.70
2017-11-01T04:37:53.044Z,38.00
2017-11-01T04:40:20.290Z,38.10
2017-11-01T04:42:47.233Z,36.50
2017-11-01T04:45:13.432Z,38.40
2017-11-01T04:47:40.405Z,40.60
2017-11-01T04:50:08.492Z,39.50
2017-11-01T04:52:34.685Z,40.40
2017-11-01T04:55:00.869Z,39.00
2017-11-01T04:57:28.770Z,38.83
2017-11-01T04:59:55.695Z,37.70
2017-11-01T05:02:27.897Z,37.23
2017-11-01T05:04:54.058Z,40.30
2017-11-01T05:07:20.227Z,40.90
2017-11-01T05:09:46.423Z,40.87
2017-11-01T05:12:13.593Z,39.90
2017-11-01T05:14:39.801Z,40.20
2017-11-01T05:17:07.798Z,40.57
2017-11-01T05:19:33.968Z,42.37
2017-11-01T05:22:00.149Z,42.70
2017-11-01T05:24:29.217Z,41.50
2017-11-01T05:26:56.146Z,41.50
2017-11-01T05:29:23.120Z,42.87
2017-11-01T05:31:51.030Z,41.53
2017-11-01T05:34:17.247Z,42.07
2017-11-01T05:36:43.410Z,38.33
2017-11-01T05:39:09.618Z,38.20
2017-11-01T05:41:36.090Z,40.70
2017-11-01T05:44:02.273Z,38.87
2017-11-01T05:46:30.041Z,37.73
2017-11-01T05:48:56.954Z,38.77
2017-11-01T05:51:23.113Z,38.77
2017-11-01T05:53:50.427Z,37.17
2017-11-01T05:56:16.604Z,34.20
2017-11-01T05:58:44.001Z,34.67
2017-11-01T06:01:10.333Z,35.30
2017-11-01T06:03:36.569Z,31.90
2017-11-01T06:06:02.741Z,31.77
2017-11-01T06:08:29.706Z,33.90
2017-11-01T06:10:55.861Z,31.00
2017-11-01T06:13:22.766Z,32.80
2017-11-01T06:15:48.946Z,32.20
2017-11-01T06:18:15.837Z,33.50
2017-11-01T06:20:41.985Z,33.10
2017-11-01T06:23:10.986Z,33.47
2017-11-01T06:25:37.176Z,32.00
2017-11-01T06:28:03.334Z,34.97
2017-11-01T06:30:30.368Z,32.53
2017-11-01T06:32:56.549Z,30.57
2017-11-01T06:35:22.723Z,30.83
2017-11-01T06:37:48.918Z,31.10
2017-11-01T06:40:15.073Z,32.70
2017-11-01T06:42:41.300Z,33.13
2017-11-01T06:45:07.476Z,30.10
2017-11-01T06:47:33.629Z,30.63
2017-11-01T06:50:00.559Z,33.93
2017-11-01T06:52:26.731Z,31.80
2017-11-01T06:54:52.918Z,34.33
2017-11-01T06:57:19.110Z,34.30
2017-11-01T06:59:46.094Z,35.77
2017-11-01T07:02:12.290Z,34.37
2017-11-01T07:04:39.937Z,34.90
2017-11-01T07:07:06.126Z,36.30
2017-11-01T07:09:35.190Z,34.97
2017-11-01T07:12:01.369Z,32.73
2017-11-01T07:14:27.576Z,33.63
2017-11-01T07:16:54.498Z,32.67
2017-11-01T07:19:20.670Z,33.10
2017-11-01T07:21:46.900Z,35.20
2017-11-01T07:24:13.071Z,36.43
2017-11-01T07:26:39.258Z,36.43
2017-11-01T07:29:06.220Z,35.07
2017-11-01T07:31:32.429Z,34.93
2017-11-01T07:33:58.661Z,33.50
2017-11-01T07:36:24.838Z,34.07
2017-11-01T07:38:51.005Z,34.70
2017-11-01T07:41:17.215Z,35.63
2017-11-01T07:43:43.581Z,36.10
2017-11-01T07:46:09.803Z,31.30
2017-11-01T07:48:35.985Z,32.40
2017-11-01T07:51:02.936Z,35.63
2017-11-01T07:53:29.849Z,36.23
2017-11-01T07:55:56.069Z,36.00
2017-11-01T07:58:22.265Z,34.17
2017-11-01T08:00:48.510Z,37.03
2017-11-01T08:03:14.703Z,33.40
2017-11-01T08:05:40.885Z,34.03
2017-11-01T08:08:07.066Z,35.03
2017-11-01T08:10:33.246Z,34.17
2017-11-01T08:12:59.480Z,33.03
2017-11-01T08:15:25.642Z,32.40
2017-11-01T08:17:51.789Z,34.27
2017-11-01T08:20:18.721Z,32.20
2017-11-01T08:22:44.877Z,30.70
2017-11-01T08:25:11.025Z,32.90
2017-11-01T08:27:37.201Z,30.77
2017-11-01T08:30:03.365Z,30.90
2017-11-01T08:32:29.541Z,30.03
2017-11-01T08:34:56.450Z,29.90
2017-11-01T08:37:22.630Z,29.40
2017-11-01T08:39:49.517Z,31.33
2017-11-01T08:42:15.681Z,30.97
2017-11-01T08:44:42.618Z,32.13
2017-11-01T08:47:08.774Z,30.10
2017-11-01T08:49:34.965Z,30.37
2017-11-01T08:52:01.145Z,28.80
2017-11-01T08:54:28.068Z,30.60
2017-11-01T08:56:54.268Z,31.40
2017-11-01T08:59:20.474Z,31.70
2017-11-01T09:01:46.793Z,29.77
2017-11-01T09:04:12.990Z,28.20
2017-11-01T09:06:39.194Z,29.93
2017-11-01T09:09:05.369Z,29.80
2017-11-01T09:11:31.567Z,29.67
2017-11-01T09:13:57.757Z,28.20
2017-11-01T09:16:24.666Z,29.87
2017-11-01T09:18:50.861Z,28.33
2017-11-01T09:21:17.773Z,27.30
2017-11-01T09:23:43.957Z,28.10
2017-11-01T09:26:10.170Z,29.17
2017-11-01T09:28:36.321Z,28.27
2017-11-01T09:31:03.220Z,28.63
2017-11-01T09:33:29.400Z,30.27
2017-11-01T09:35:56.292Z,27.80
2017-11-01T09:38:22.471Z,29.50
2017-11-01T09:40:49.408Z,27.50
2017-11-01T09:43:15.589Z,28.00
2017-11-01T09:45:41.990Z,28.77
2017-11-01T09:48:08.913Z,29.13
2017-11-01T09:50:35.087Z,27.30
2017-11-01T09:53:01.998Z,27.43
2017-11-01T09:55:29.649Z,27.80
2017-11-01T09:57:55.818Z,26.77
2017-11-01T10:00:22.010Z,27.50
2017-11-01T10:02:48.269Z,27.40
2017-11-01T10:05:14.463Z,31.13
2017-11-01T10:07:40.643Z,28.10
2017-11-01T10:10:07.566Z,28.63
2017-11-01T10:12:33.730Z,29.17
2017-11-01T10:15:00.656Z,24.43
2017-11-01T10:17:26.834Z,27.07
2017-11-01T10:19:53.736Z,27.27
2017-11-01T10:22:19.897Z,30.17
2017-11-01T10:24:46.890Z,27.20
2017-11-01T10:27:13.088Z,26.00
2017-11-01T10:29:39.243Z,28.33
2017-11-01T10:32:07.217Z,26.60
2017-11-01T10:34:33.386Z,27.20
2017-11-01T10:36:59.563Z,25.17
2017-11-01T10:39:26.474Z,29.30
2017-11-01T10:41:52.648Z,27.47
2017-11-01T10:44:18.810Z,28.70
2017-11-01T10:46:45.048Z,27.33
2017-11-01T10:49:11.200Z,29.80
2017-11-01T10:51:37.378Z,28.60
2017-11-01T10:54:03.548Z,28.27
2017-11-01T10:56:29.710Z,28.23
2017-11-01T10:58:55.904Z,30.70
2017-11-01T11:01:22.092Z,28.53
2017-11-01T11:03:48.346Z,27.27
2017-11-01T11:06:14.526Z,27.53
2017-11-01T11:08:40.713Z,27.87
2017-11-01T11:11:07.614Z,29.27
2017-11-01T11:13:33.818Z,28.03
2017-11-01T11:15:59.997Z,27.03
2017-11-01T11:18:26.193Z,27.70
2017-11-01T11:20:52.351Z,26.47
2017-11-01T11:23:18.576Z,28.03
2017-11-01T11:25:44.740Z,27.70
2017-11-01T11:28:10.922Z,28.20
2017-11-01T11:30:37.161Z,28.77
2017-11-01T11:33:03.363Z,27.27
2017-11-01T11:35:30.322Z,32.37
2017-11-01T11:37:57.259Z,31.10
2017-11-01T11:40:23.430Z,32.00
2017-11-01T11:42:49.585Z,32.50
2017-11-01T11:45:15.766Z,31.20
2017-11-01T11:47:42.187Z,32.17
2017-11-01T11:50:08.365Z,34.00
2017-11-01T11:52:34.559Z,34.30
2017-11-01T11:55:00.709Z,34.00
2017-11-01T11:57:27.621Z,34.77
2017-11-01T11:59:53.834Z,36.20
2017-11-01T12:02:20.021Z,36.10
2017-11-01T12:04:46.274Z,34.83
2017-11-01T12:07:13.202Z,35.30
2017-11-01T12:09:39.358Z,37.80
2017-11-01T12:12:06.307Z,37.63
2017-11-01T12:14:32.490Z,37.80
2017-11-01T12:16:58.662Z,36.40
2017-11-01T12:19:24.865Z,36.07
2017-11-01T12:21:51.055Z,39.63
2017-11-01T12:24:17.953Z,37.57
2017-11-01T12:26:44.158Z,36.10
2017-11-01T12:29:10.357Z,36.10
2017-11-01T12:31:36.545Z,36.60
2017-11-01T12:34:02.818Z,35.70
2017-11-01T12:36:29.751Z,35.03
2017-11-01T12:38:55.952Z,35.37
2017-11-01T12:41:22.154Z,36.20
2017-11-01T12:43:49.061Z,36.53
2017-11-01T12:46:16.797Z,36.10
2017-11-01T12:48:42.993Z,33.87
2017-11-01T12:51:09.191Z,37.30
2017-11-01T12:53:35.349Z,34.73
2017-11-01T12:56:09.268Z,35.23
2017-11-01T12:58:35.445Z,34.17
2017-11-01T13:01:01.618Z,37.13
2017-11-01T13:03:27.807Z,35.43
2017-11-01T13:05:54.038Z,35.40
2017-11-01T13:08:20.189Z,36.73
2017-11-01T13:10:46.377Z,35.77
2017-11-01T13:13:12.557Z,36.13
2017-11-01T13:15:38.746Z,36.50
2017-11-01T13:18:05.681Z,35.20
2017-11-01T13:20:32.606Z,36.63
2017-11-01T13:22:58.777Z,35.17
2017-11-01T13:25:25.717Z,34.60
2017-11-01T13:27:52.626Z,33.10
2017-11-01T13:30:18.819Z,33.30
2017-11-01T13:32:45.738Z,37.07
2017-11-01T13:35:11.938Z,34.70
2017-11-01T13:37:38.169Z,35.67
2017-11-01T13:40:04.355Z,35.80
2017-11-01T13:42:31.261Z,33.23
2017-11-01T13:44:57.412Z,35.87
2017-11-01T13:47:23.590Z,35.77
2017-11-01T13:49:49.802Z,36.50
2017-11-01T13:52:16.077Z,34.17
2017-11-01T13:54:42.270Z,37.60
2017-11-01T13:57:08.435Z,33.20
2017-11-01T13:59:34.581Z,36.50
2017-11-01T14:02:00.762Z,36.63
2017-11-01T14:04:27.706Z,34.90
2017-11-01T14:06:53.953Z,35.30
2017-11-01T14:09:20.906Z,34.70
2017-11-01T14:11:47.864Z,34.80
2017-11-01T14:14:14.048Z,36.63
2017-11-01T14:16:41.001Z,34.70
2017-11-01T14:19:07.156Z,36.60
2017-11-01T14:21:34.060Z,36.30
2017-11-01T14:24:00.247Z,35.20
2017-11-01T14:26:27.162Z,34.77
2017-11-01T14:28:53.317Z,34.83
2017-11-01T14:31:19.481Z,35.07
2017-11-01T14:33:46.390Z,37.67
2017-11-01T14:36:12.598Z,34.87
2017-11-01T14:38:38.839Z,35.87
2017-11-01T14:41:04.993Z,37.43
2017-11-01T14:43:31.132Z,35.50
2017-11-01T14:45:57.318Z,37.90
2017-11-01T14:48:23.491Z,35.83
2017-11-01T14:50:49.703Z,35.30
2017-11-01T14:53:15.903Z,36.07
2017-11-01T14:55:42.082Z,39.37
2017-11-01T14:58:08.250Z,35.57
2017-11-01T15:00:35.190Z,37.73
2017-11-01T15:03:02.101Z,38.90
2017-11-01T15:05:28.263Z,38.83
2017-11-01T15:07:54.758Z,43.33
2017-11-01T15:10:20.918Z,41.60
2017-11-01T15:12:47.837Z,41.13
2017-11-01T15:15:14.751Z,39.70
2017-11-01T15:17:41.693Z,44.73
2017-11-01T15:20:07.849Z,41.90
2017-11-01T15:22:34.049Z,42.33
2017-11-01T15:25:00.289Z,42.77
2017-11-01T15:27:26.473Z,43.50
2017-11-01T15:29:52.681Z,47.77
2017-11-01T15:32:19.601Z,46.47
2017-11-01T15:34:45.773Z,46.97
2017-11-01T15:37:12.697Z,46.27
2017-11-01T15:39:39.670Z,42.83
2017-11-01T15:42:06.586Z,47.00
2017-11-01T15:44:32.777Z,48.33
2017-11-01T15:46:58.938Z,50.13
2017-11-01T15:49:25.118Z,52.27
2017-11-01T15:51:51.341Z,54.10
2017-11-01T15:54:17.520Z,52.87
2017-11-01T15:56:43.697Z,53.80
2017-11-01T15:59:09.877Z,54.40
2017-11-01T16:01:36.799Z,55.43
2017-11-01T16:04:02.963Z,58.87
2017-11-01T16:06:29.162Z,53.10
2017-11-01T16:08:56.879Z,57.47
2017-11-01T16:11:23.064Z,56.37
2017-11-01T16:13:49.246Z,57.97
2017-11-01T16:16:15.414Z,57.00
2017-11-01T16:18:41.558Z,59.77
2017-11-01T16:21:07.738Z,58.63
2017-11-01T16:23:33.925Z,61.47
2017-11-01T16:26:00.093Z,59.83
2017-11-01T16:28:27.043Z,59.47
2017-11-01T16:30:53.976Z,63.57
2017-11-01T16:33:20.921Z,58.77
2017-11-01T16:35:47.137Z,61.80
2017-11-01T16:38:14.080Z,56.20
2017-11-01T16:40:40.286Z,58.80
2017-11-01T16:43:06.556Z,58.73
2017-11-01T16:45:32.746Z,57.70
2017-11-01T16:47:58.961Z,60.37
2017-11-01T16:50:25.189Z,60.90
2017-11-01T16:52:51.393Z,58.70
2017-11-01T16:55:17.557Z,58.10
2017-11-01T16:57:43.803Z,56.80
2017-11-01T17:00:10.022Z,55.80
2017-11-01T17:02:36.218Z,56.60
2017-11-01T17:05:02.525Z,55.10
2017-11-01T17:07:29.521Z,55.03
2017-11-01T17:09:56.543Z,54.10
2017-11-01T17:12:22.723Z,56.47
2017-11-01T17:14:49.006Z,55.83
2017-11-01T17:17:15.194Z,49.30
2017-11-01T17:19:42.103Z,56.40
2017-11-01T17:22:08.345Z,51.30
2017-11-01T17:24:34.522Z,53.40
2017-11-01T17:27:01.466Z,50.37
2017-11-01T17:29:28.375Z,50.40
2017-11-01T17:31:54.537Z,51.03
2017-11-01T17:34:21.482Z,50.33
2017-11-01T17:36:47.674Z,51.30
2017-11-01T17:39:13.838Z,49.00
2017-11-01T17:41:41.522Z,48.00
2017-11-01T17:44:07.685Z,49.03
2017-11-01T17:46:34.581Z,47.60
2017-11-01T17:49:00.762Z,46.43
2017-11-01T17:51:26.954Z,45.00
2017-11-01T17:53:53.408Z,45.03
2017-11-01T17:56:19.602Z,45.33
2017-11-01T17:58:45.830Z,45.77
2017-11-01T18:01:12.054Z,46.97
2017-11-01T18:03:38.430Z,46.07
2017-11-01T18:06:04.634Z,47.13
2017-11-01T18:08:30.846Z,49.17
2017-11-01T18:10:57.089Z,45.87
2017-11-01T18:13:23.281Z,47.63
2017-11-01T18:15:50.217Z,45.80
2017-11-01T18:18:16.393Z,48.73
2017-11-01T18:20:42.574Z,45.70
2017-11-01T18:23:08.794Z,46.53
2017-11-01T18:25:36.616Z,47.80
2017-11-01T18:28:02.833Z,47.80
2017-11-01T18:30:29.767Z,48.60
2017-11-01T18:32:55.990Z,50.03
2017-11-01T18:35:22.997Z,51.00
2017-11-01T18:37:49.194Z,48.20
2017-11-01T18:40:15.397Z,47.80
2017-11-01T18:42:41.571Z,47.60
2017-11-01T18:45:08.554Z,48.63
2017-11-01T18:47:35.481Z,50.10
2017-11-01T18:50:01.662Z,47.90
2017-11-01T18:52:27.821Z,49.27
2017-11-01T18:54:54.003Z,47.97
2017-11-01T18:57:20.919Z,48.77
2017-11-01T18:59:47.087Z,48.63
2017-11-01T19:02:14.058Z,48.47
2017-11-01T19:04:40.329Z,50.80
2017-11-01T19:07:06.516Z,49.20
2017-11-01T19:09:32.758Z,47.57
2017-11-01T19:11:59.093Z,49.40
2017-11-01T19:14:25.282Z,49.20
2017-11-01T19:16:51.491Z,50.30
2017-11-01T19:19:17.670Z,49.13
2017-11-01T19:21:43.846Z,49.07
2017-11-01T19:24:10.046Z,45.27
2017-11-01T19:26:36.968Z,47.73
2017-11-01T19:29:03.914Z,45.10
2017-11-01T19:31:30.107Z,47.80
2017-11-01T19:33:56.308Z,45.10
2017-11-01T19:36:22.493Z,44.87
2017-11-01T19:38:48.690Z,45.47
2017-11-01T19:41:15.604Z,44.27
2017-11-01T19:43:42.529Z,43.20
2017-11-01T19:46:08.721Z,43.37
2017-11-01T19:48:35.641Z,44.77
2017-11-01T19:51:02.580Z,41.80
2017-11-01T19:53:28.794Z,44.40
2017-11-01T19:55:54.978Z,44.87
2017-11-01T19:58:21.893Z,42.70
2017-11-01T20:00:48.858Z,43.77
2017-11-01T20:03:15.821Z,41.43
2017-11-01T20:05:41.995Z,42.37
2017-11-01T20:08:09.080Z,43.67
2017-11-01T20:10:36.068Z,40.97
2017-11-01T20:13:02.697Z,42.90
2017-11-01T20:15:29.054Z,41.80
2017-11-01T20:17:55.304Z,40.53
2017-11-01T20:20:21.505Z,43.17
2017-11-01T20:22:48.633Z,42.43
2017-11-01T20:25:14.863Z,41.17
2017-11-01T20:27:41.042Z,42.73
2017-11-01T20:30:08.799Z,41.80
2017-11-01T20:32:35.729Z,41.10
2017-11-01T20:35:01.899Z,40.27
2017-11-01T20:37:28.826Z,40.20
2017-11-01T20:39:55.795Z,41.70
2017-11-01T20:42:22.728Z,40.17
2017-11-01T20:44:48.964Z,42.10
2017-11-01T20:47:15.170Z,42.30
2017-11-01T20:49:41.366Z,41.40
2017-11-01T20:52:08.290Z,39.37
2017-11-01T20:54:34.528Z,39.87
2017-11-01T20:57:01.499Z,37.57
2017-11-01T20:59:27.722Z,36.07
2017-11-01T21:01:54.653Z,38.20
2017-11-01T21:04:21.614Z,36.90
2017-11-01T21:06:47.934Z,37.97
2017-11-01T21:09:14.883Z,39.67
2017-11-01T21:11:41.067Z,38.77
2017-11-01T21:14:07.366Z,39.53
2017-11-01T21:16:33.557Z,37.87
2017-11-01T21:18:59.767Z,38.00
2017-11-01T21:21:26.016Z,41.30
2017-11-01T21:23:52.225Z,39.63
2017-11-01T21:26:18.417Z,42.10
2017-11-01T21:28:44.602Z,40.83
2017-11-01T21:31:10.826Z,42.47
2017-11-01T21:33:37.001Z,42.70
2017-11-01T21:36:03.234Z,41.50
2017-11-01T21:38:29.409Z,41.63
2017-11-01T21:40:55.689Z,41.83
2017-11-01T21:43:21.918Z,44.57
2017-11-01T21:45:48.099Z,42.67
2017-11-01T21:48:15.047Z,44.13
2017-11-01T21:50:41.321Z,42.83
2017-11-01T21:53:07.541Z,42.40
2017-11-01T21:55:34.445Z,44.00
2017-11-01T21:58:00.678Z,42.60
2017-11-01T22:00:26.841Z,45.80
2017-11-01T22:02:53.780Z,41.60
2017-11-01T22:05:20.749Z,45.07
2017-11-01T22:07:47.682Z,45.57
2017-11-01T22:10:13.903Z,44.17
2017-11-01T22:12:40.179Z,43.20
2017-11-01T22:15:07.260Z,41.90
2017-11-01T22:17:33.452Z,42.30
2017-11-01T22:20:01.746Z,41.57
2017-11-01T22:22:27.989Z,42.27
2017-11-01T22:24:54.917Z,43.30
2017-11-01T22:27:21.856Z,39.87
2017-11-01T22:29:48.030Z,38.40
2017-11-01T22:32:14.942Z,37.87
2017-11-01T22:34:41.133Z,37.33
2017-11-01T22:37:07.317Z,35.27
2017-11-01T22:39:34.217Z,31.23
2017-11-01T22:42:00.454Z,31.40
2017-11-01T22:44:26.665Z,31.87
2017-11-01T22:46:52.838Z,31.93
2017-11-01T22:49:19.050Z,37.97
2017-11-01T22:51:45.201Z,39.50
2017-11-01T22:54:11.371Z,37.03
2017-11-01T22:56:38.331Z,33.20
2017-11-01T22:59:05.268Z,31.73
2017-11-01T23:01:32.193Z,32.07
2017-11-01T23:03:58.394Z,30.97
2017-11-01T23:06:24.585Z,30.33
2017-11-01T23:08:50.773Z,33.40
2017-11-01T23:11:17.004Z,35.17
2017-11-01T23:13:43.225Z,33.90
2017-11-01T23:16:09.694Z,35.53
2017-11-01T23:18:35.926Z,36.60
2017-11-01T23:21:02.131Z,36.43
2017-11-01T23:23:29.038Z,38.17
2017-11-01T23:25:55.245Z,37.40
2017-11-01T23:28:21.422Z,40.33
2017-11-01T23:30:48.369Z,42.77
2017-11-01T23:33:14.604Z,42.37
2017-11-01T23:35:41.540Z,41.50
2017-11-01T23:38:14.739Z,62.17
2017-11-01T23:40:40.901Z,44.70
2017-11-01T23:43:07.813Z,44.10
2017-11-01T23:45:34.025Z,45.17
2017-11-01T23:48:00.230Z,44.87
2017-11-01T23:50:27.124Z,44.47
2017-11-01T23:52:53.326Z,45.63
2017-11-01T23:55:19.531Z,43.00
2017-11-01T23:57:45.750Z,44.93
